sensor_id;sensor_type;location;lat;lon;timestamp;pressure;altitude;pressure_sealevel;temperature;humidity
77159;BME280;66129;45.890;13.714;2023-02-28T00:01:16;101525.81;;;2.99;53.85
77159;BME280;66129;45.890;13.714;2023-02-28T00:03:42;101564.72;;;3.14;53.78
77159;BME280;66129;45.890;13.714;2023-02-28T00:06:08;101610.88;;;3.50;53.76
77159;BME280;66129;45.890;13.714;2023-02-28T00:08:35;101616.25;;;3.54;53.16
77159;BME280;66129;45.890;13.714;2023-02-28T00:11:10;101576.66;;;3.29;53.55
77159;BME280;66129;45.890;13.714;2023-02-28T00:13:40;101609.50;;;3.55;53.29
77159;BME280;66129;45.890;13.714;2023-02-28T00:16:09;101551.06;;;3.12;53.58
77159;BME280;66129;45.890;13.714;2023-02-28T00:18:35;101546.59;;;3.08;53.72
77159;BME280;66129;45.890;13.714;2023-02-28T00:21:01;101597.19;;;3.33;53.84
77159;BME280;66129;45.890;13.714;2023-02-28T00:23:27;101517.72;;;2.91;53.94
77159;BME280;66129;45.890;13.714;2023-02-28T00:25:53;101622.09;;;3.53;53.69
77159;BME280;66129;45.890;13.714;2023-02-28T00:28:19;101607.19;;;3.45;53.81
77159;BME280;66129;45.890;13.714;2023-02-28T00:30:45;101607.09;;;3.43;54.08
77159;BME280;66129;45.890;13.714;2023-02-28T00:33:10;101566.84;;;3.21;54.24
77159;BME280;66129;45.890;13.714;2023-02-28T00:35:36;101618.03;;;3.42;54.24
77159;BME280;66129;45.890;13.714;2023-02-28T00:38:02;101567.56;;;3.05;54.58
77159;BME280;66129;45.890;13.714;2023-02-28T00:40:28;101589.06;;;3.12;54.37
77159;BME280;66129;45.890;13.714;2023-02-28T00:42:54;101580.09;;;3.04;54.74
77159;BME280;66129;45.890;13.714;2023-02-28T00:45:19;101586.44;;;3.10;54.57
77159;BME280;66129;45.890;13.714;2023-02-28T00:47:48;101583.41;;;3.03;54.74
77159;BME280;66129;45.890;13.714;2023-02-28T00:50:24;101604.25;;;3.12;55.07
77159;BME280;66129;45.890;13.714;2023-02-28T00:52:49;101564.44;;;2.96;54.51
77159;BME280;66129;45.890;13.714;2023-02-28T00:55:15;101559.19;;;2.93;54.89
77159;BME280;66129;45.890;13.714;2023-02-28T00:57:40;101569.63;;;2.98;54.42
77159;BME280;66129;45.890;13.714;2023-02-28T01:00:07;101593.28;;;3.11;54.74
77159;BME280;66129;45.890;13.714;2023-02-28T01:02:33;101622.84;;;3.25;55.28
77159;BME280;66129;45.890;13.714;2023-02-28T01:04:59;101619.06;;;3.19;55.37
77159;BME280;66129;45.890;13.714;2023-02-28T01:07:24;101637.53;;;3.30;55.34
77159;BME280;66129;45.890;13.714;2023-02-28T01:09:50;101661.69;;;3.38;55.64
77159;BME280;66129;45.890;13.714;2023-02-28T01:12:16;101654.78;;;3.23;55.24
77159;BME280;66129;45.890;13.714;2023-02-28T01:14:42;101625.06;;;3.33;55.52
77159;BME280;66129;45.890;13.714;2023-02-28T01:17:07;101653.31;;;3.39;55.51
77159;BME280;66129;45.890;13.714;2023-02-28T01:19:33;101624.78;;;3.16;55.63
77159;BME280;66129;45.890;13.714;2023-02-28T01:22:03;101673.97;;;3.32;55.69
77159;BME280;66129;45.890;13.714;2023-02-28T01:24:29;101619.25;;;3.09;56.60
77159;BME280;66129;45.890;13.714;2023-02-28T01:26:55;101600.00;;;2.98;56.36
77159;BME280;66129;45.890;13.714;2023-02-28T01:29:20;101580.16;;;2.91;56.08
77159;BME280;66129;45.890;13.714;2023-02-28T01:31:46;101645.63;;;3.25;56.20
77159;BME280;66129;45.890;13.714;2023-02-28T01:34:11;101615.38;;;3.01;56.11
77159;BME280;66129;45.890;13.714;2023-02-28T01:36:37;101647.59;;;3.16;56.06
77159;BME280;66129;45.890;13.714;2023-02-28T01:39:03;101614.50;;;3.00;56.27
77159;BME280;66129;45.890;13.714;2023-02-28T01:41:31;101593.59;;;2.90;56.45
77159;BME280;66129;45.890;13.714;2023-02-28T01:44:53;101610.34;;;2.88;56.52
77159;BME280;66129;45.890;13.714;2023-02-28T01:46:52;101638.84;;;3.11;56.32
77159;BME280;66129;45.890;13.714;2023-02-28T01:49:18;101644.59;;;3.09;56.45
77159;BME280;66129;45.890;13.714;2023-02-28T01:51:49;101653.34;;;3.14;56.73
77159;BME280;66129;45.890;13.714;2023-02-28T01:54:41;101658.41;;;3.14;56.67
77159;BME280;66129;45.890;13.714;2023-02-28T01:57:10;101553.59;;;2.58;56.63
77159;BME280;66129;45.890;13.714;2023-02-28T02:02:24;101617.72;;;2.85;56.72
77159;BME280;66129;45.890;13.714;2023-02-28T02:05:04;101606.75;;;2.84;56.77
77159;BME280;66129;45.890;13.714;2023-02-28T02:07:34;101643.44;;;2.91;56.57
77159;BME280;66129;45.890;13.714;2023-02-28T02:10:29;101625.13;;;2.82;56.59
77159;BME280;66129;45.890;13.714;2023-02-28T02:13:00;101663.28;;;3.11;56.70
77159;BME280;66129;45.890;13.714;2023-02-28T02:21:42;101650.53;;;3.09;56.54
77159;BME280;66129;45.890;13.714;2023-02-28T02:29:52;101677.69;;;3.12;56.71
77159;BME280;66129;45.890;13.714;2023-02-28T02:35:21;101697.97;;;3.12;56.58
77159;BME280;66129;45.890;13.714;2023-02-28T02:43:19;101675.16;;;3.12;56.42
77159;BME280;66129;45.890;13.714;2023-02-28T02:48:19;101650.72;;;2.86;56.71
77159;BME280;66129;45.890;13.714;2023-02-28T02:50:58;101627.69;;;2.69;56.88
77159;BME280;66129;45.890;13.714;2023-02-28T02:53:30;101697.06;;;3.24;56.43
77159;BME280;66129;45.890;13.714;2023-02-28T02:55:58;101644.22;;;2.90;56.73
77159;BME280;66129;45.890;13.714;2023-02-28T02:58:28;101661.38;;;2.94;56.74
77159;BME280;66129;45.890;13.714;2023-02-28T03:01:00;101689.31;;;3.08;57.02
77159;BME280;66129;45.890;13.714;2023-02-28T03:03:28;101653.94;;;2.84;57.07
77159;BME280;66129;45.890;13.714;2023-02-28T03:05:59;101698.06;;;3.13;56.91
77159;BME280;66129;45.890;13.714;2023-02-28T03:08:25;101686.66;;;3.07;57.24
77159;BME280;66129;45.890;13.714;2023-02-28T03:10:56;101683.16;;;3.05;57.28
77159;BME280;66129;45.890;13.714;2023-02-28T03:21:28;101696.78;;;3.07;57.79
77159;BME280;66129;45.890;13.714;2023-02-28T03:24:11;101698.94;;;3.01;57.65
77159;BME280;66129;45.890;13.714;2023-02-28T03:26:58;101615.28;;;2.60;58.28
77159;BME280;66129;45.890;13.714;2023-02-28T03:29:34;101652.38;;;2.73;58.05
77159;BME280;66129;45.890;13.714;2023-02-28T03:32:10;101682.41;;;2.93;58.69
77159;BME280;66129;45.890;13.714;2023-02-28T03:34:49;101628.81;;;2.48;58.31
77159;BME280;66129;45.890;13.714;2023-02-28T03:37:20;101650.13;;;2.64;58.58
77159;BME280;66129;45.890;13.714;2023-02-28T03:39:54;101630.75;;;2.52;58.89
77159;BME280;66129;45.890;13.714;2023-02-28T03:42:24;101645.19;;;2.66;58.49
77159;BME280;66129;45.890;13.714;2023-02-28T03:44:56;101608.09;;;2.40;58.81
77159;BME280;66129;45.890;13.714;2023-02-28T03:47:28;101616.94;;;2.47;58.98
77159;BME280;66129;45.890;13.714;2023-02-28T03:50:08;101678.69;;;2.88;58.79
77159;BME280;66129;45.890;13.714;2023-02-28T03:52:40;101636.22;;;2.58;59.48
77159;BME280;66129;45.890;13.714;2023-02-28T03:55:10;101684.69;;;2.77;59.30
77159;BME280;66129;45.890;13.714;2023-02-28T03:58:16;101661.53;;;2.84;59.06
77159;BME280;66129;45.890;13.714;2023-02-28T04:00:50;101577.25;;;2.33;59.24
77159;BME280;66129;45.890;13.714;2023-02-28T04:03:18;101650.91;;;2.63;59.43
77159;BME280;66129;45.890;13.714;2023-02-28T04:05:50;101616.56;;;2.67;59.49
77159;BME280;66129;45.890;13.714;2023-02-28T04:08:19;101601.97;;;2.50;59.16
77159;BME280;66129;45.890;13.714;2023-02-28T04:10:50;101656.47;;;2.84;59.52
77159;BME280;66129;45.890;13.714;2023-02-28T04:13:18;101556.59;;;2.27;59.58
77159;BME280;66129;45.890;13.714;2023-02-28T04:15:44;101578.00;;;2.45;59.66
77159;BME280;66129;45.890;13.714;2023-02-28T04:18:09;101579.09;;;2.48;59.54
77159;BME280;66129;45.890;13.714;2023-02-28T04:20:36;101589.09;;;2.47;59.93
77159;BME280;66129;45.890;13.714;2023-02-28T04:23:01;101634.19;;;2.65;59.49
77159;BME280;66129;45.890;13.714;2023-02-28T04:25:27;101576.47;;;2.34;59.78
77159;BME280;66129;45.890;13.714;2023-02-28T04:27:52;101574.31;;;2.40;59.37
77159;BME280;66129;45.890;13.714;2023-02-28T04:30:18;101594.06;;;2.58;59.83
77159;BME280;66129;45.890;13.714;2023-02-28T04:32:43;101580.75;;;2.35;59.55
77159;BME280;66129;45.890;13.714;2023-02-28T04:35:09;101594.34;;;2.24;59.89
77159;BME280;66129;45.890;13.714;2023-02-28T04:37:37;101603.28;;;2.19;60.08
77159;BME280;66129;45.890;13.714;2023-02-28T04:40:04;101636.41;;;2.48;60.33
77159;BME280;66129;45.890;13.714;2023-02-28T04:42:29;101588.53;;;2.01;60.69
77159;BME280;66129;45.890;13.714;2023-02-28T04:45:02;101554.78;;;1.87;60.82
77159;BME280;66129;45.890;13.714;2023-02-28T04:47:28;101653.91;;;2.45;60.28
77159;BME280;66129;45.890;13.714;2023-02-28T04:49:53;101644.97;;;2.50;60.44
77159;BME280;66129;45.890;13.714;2023-02-28T04:52:19;101633.09;;;2.36;61.04
77159;BME280;66129;45.890;13.714;2023-02-28T04:54:45;101652.56;;;2.37;61.14
77159;BME280;66129;45.890;13.714;2023-02-28T04:57:10;101553.16;;;1.88;61.41
77159;BME280;66129;45.890;13.714;2023-02-28T04:59:36;101581.66;;;1.98;60.94
77159;BME280;66129;45.890;13.714;2023-02-28T05:02:01;101651.38;;;2.45;61.23
77159;BME280;66129;45.890;13.714;2023-02-28T05:04:32;101585.44;;;2.05;61.18
77159;BME280;66129;45.890;13.714;2023-02-28T05:07:00;101580.66;;;1.96;61.37
77159;BME280;66129;45.890;13.714;2023-02-28T05:09:25;101644.28;;;2.39;61.40
77159;BME280;66129;45.890;13.714;2023-02-28T05:11:51;101563.91;;;1.85;61.82
77159;BME280;66129;45.890;13.714;2023-02-28T05:14:16;101551.88;;;1.94;60.94
77159;BME280;66129;45.890;13.714;2023-02-28T05:16:42;101649.03;;;2.48;61.60
77159;BME280;66129;45.890;13.714;2023-02-28T05:19:08;101628.19;;;2.26;62.13
77159;BME280;66129;45.890;13.714;2023-02-28T05:21:39;101658.75;;;2.42;61.60
77159;BME280;66129;45.890;13.714;2023-02-28T05:24:12;101654.72;;;2.57;61.25
77159;BME280;66129;45.890;13.714;2023-02-28T05:26:40;101609.81;;;2.28;61.47
77159;BME280;66129;45.890;13.714;2023-02-28T05:29:06;101569.31;;;2.03;61.92
77159;BME280;66129;45.890;13.714;2023-02-28T05:31:32;101631.84;;;2.68;66.43
77159;BME280;66129;45.890;13.714;2023-02-28T05:33:58;101652.38;;;2.73;61.35
77159;BME280;66129;45.890;13.714;2023-02-28T05:36:24;101642.81;;;2.43;61.46
77159;BME280;66129;45.890;13.714;2023-02-28T05:38:50;101656.06;;;2.39;62.20
77159;BME280;66129;45.890;13.714;2023-02-28T05:41:17;101648.56;;;2.40;61.65
77159;BME280;66129;45.890;13.714;2023-02-28T05:43:53;101562.97;;;1.96;61.63
77159;BME280;66129;45.890;13.714;2023-02-28T05:46:19;101615.97;;;2.32;61.41
77159;BME280;66129;45.890;13.714;2023-02-28T05:48:47;101621.22;;;2.35;61.37
77159;BME280;66129;45.890;13.714;2023-02-28T05:51:13;101596.69;;;2.34;61.23
77159;BME280;66129;45.890;13.714;2023-02-28T05:53:41;101599.03;;;2.31;61.38
77159;BME280;66129;45.890;13.714;2023-02-28T05:56:06;101601.44;;;2.29;61.76
77159;BME280;66129;45.890;13.714;2023-02-28T05:58:32;101576.81;;;2.14;61.77
77159;BME280;66129;45.890;13.714;2023-02-28T06:01:01;101640.50;;;2.72;60.98
77159;BME280;66129;45.890;13.714;2023-02-28T06:03:43;101613.75;;;2.49;61.15
77159;BME280;66129;45.890;13.714;2023-02-28T06:06:09;101613.72;;;2.62;61.17
77159;BME280;66129;45.890;13.714;2023-02-28T06:08:34;101567.31;;;2.36;61.07
77159;BME280;66129;45.890;13.714;2023-02-28T06:11:03;101590.09;;;2.49;61.33
77159;BME280;66129;45.890;13.714;2023-02-28T06:13:28;101541.03;;;2.47;60.93
77159;BME280;66129;45.890;13.714;2023-02-28T06:15:55;101590.50;;;2.68;60.55
77159;BME280;66129;45.890;13.714;2023-02-28T06:18:23;101559.72;;;2.62;60.29
77159;BME280;66129;45.890;13.714;2023-02-28T06:20:53;101605.84;;;2.84;60.47
77159;BME280;66129;45.890;13.714;2023-02-28T06:23:20;101572.28;;;2.60;59.98
77159;BME280;66129;45.890;13.714;2023-02-28T06:25:46;101666.00;;;3.14;60.12
77159;BME280;66129;45.890;13.714;2023-02-28T06:28:15;101575.00;;;2.76;59.72
77159;BME280;66129;45.890;13.714;2023-02-28T06:30:41;101619.56;;;3.00;59.70
77159;BME280;66129;45.890;13.714;2023-02-28T06:33:09;101597.28;;;2.95;59.96
77159;BME280;66129;45.890;13.714;2023-02-28T06:35:35;101618.09;;;3.04;59.67
77159;BME280;66129;45.890;13.714;2023-02-28T06:38:13;101592.03;;;2.92;59.67
77159;BME280;66129;45.890;13.714;2023-02-28T06:40:40;101648.88;;;3.23;59.55
77159;BME280;66129;45.890;13.714;2023-02-28T06:43:06;101685.34;;;3.52;59.45
77159;BME280;66129;45.890;13.714;2023-02-28T06:45:35;101593.38;;;3.00;59.39
77159;BME280;66129;45.890;13.714;2023-02-28T06:48:00;101651.94;;;3.44;58.89
77159;BME280;66129;45.890;13.714;2023-02-28T06:50:28;101652.78;;;3.45;58.86
77159;BME280;66129;45.890;13.714;2023-02-28T06:52:56;101620.03;;;3.21;58.98
77159;BME280;66129;45.890;13.714;2023-02-28T06:55:21;101702.19;;;3.64;59.98
77159;BME280;66129;45.890;13.714;2023-02-28T06:57:57;101639.66;;;3.37;59.52
77159;BME280;66129;45.890;13.714;2023-02-28T07:00:27;101709.91;;;3.66;59.49
77159;BME280;66129;45.890;13.714;2023-02-28T07:02:53;101616.72;;;3.22;59.24
77159;BME280;66129;45.890;13.714;2023-02-28T07:05:20;101704.50;;;3.74;59.10
77159;BME280;66129;45.890;13.714;2023-02-28T07:07:45;101611.00;;;3.38;58.50
77159;BME280;66129;45.890;13.714;2023-02-28T07:10:12;101652.50;;;3.53;58.40
77159;BME280;66129;45.890;13.714;2023-02-28T07:12:39;101641.66;;;3.56;59.00
77159;BME280;66129;45.890;13.714;2023-02-28T07:15:05;101661.72;;;3.66;58.85
77159;BME280;66129;45.890;13.714;2023-02-28T07:17:33;101656.19;;;4.13;57.75
77159;BME280;66129;45.890;13.714;2023-02-28T07:20:01;101717.56;;;5.07;55.29
77159;BME280;66129;45.890;13.714;2023-02-28T07:22:29;101656.13;;;5.44;53.83
77159;BME280;66129;45.890;13.714;2023-02-28T07:24:55;101666.94;;;5.56;52.85
77159;BME280;66129;45.890;13.714;2023-02-28T07:27:23;101661.88;;;5.72;53.03
77159;BME280;66129;45.890;13.714;2023-02-28T07:29:54;101633.78;;;5.85;51.36
77159;BME280;66129;45.890;13.714;2023-02-28T07:32:21;101719.91;;;6.42;51.25
77159;BME280;66129;45.890;13.714;2023-02-28T07:34:47;101718.06;;;7.06;49.84
77159;BME280;66129;45.890;13.714;2023-02-28T07:37:14;101657.09;;;6.42;50.16
77159;BME280;66129;45.890;13.714;2023-02-28T07:39:40;101645.88;;;6.89;48.64
77159;BME280;66129;45.890;13.714;2023-02-28T07:42:11;101648.97;;;7.36;48.12
77159;BME280;66129;45.890;13.714;2023-02-28T07:44:46;101615.63;;;7.51;46.86
77159;BME280;66129;45.890;13.714;2023-02-28T07:57:26;101657.81;;;7.80;45.64
77159;BME280;66129;45.890;13.714;2023-02-28T07:59:52;101681.66;;;7.62;46.62
77159;BME280;66129;45.890;13.714;2023-02-28T08:02:21;101660.81;;;6.82;49.34
77159;BME280;66129;45.890;13.714;2023-02-28T08:04:46;101713.50;;;7.53;48.94
77159;BME280;66129;45.890;13.714;2023-02-28T08:07:16;101684.50;;;8.06;47.22
77159;BME280;66129;45.890;13.714;2023-02-28T08:09:44;101668.03;;;7.80;47.36
77159;BME280;66129;45.890;13.714;2023-02-28T08:12:20;101711.13;;;7.92;47.23
77159;BME280;66129;45.890;13.714;2023-02-28T08:14:46;101667.81;;;7.03;48.39
77159;BME280;66129;45.890;13.714;2023-02-28T08:17:12;101672.19;;;6.55;49.44
77159;BME280;66129;45.890;13.714;2023-02-28T08:19:40;101711.66;;;7.49;48.40
77159;BME280;66129;45.890;13.714;2023-02-28T08:22:08;101665.34;;;8.15;45.55
77159;BME280;66129;45.890;13.714;2023-02-28T08:24:34;101641.78;;;8.60;44.22
77159;BME280;66129;45.890;13.714;2023-02-28T08:27:02;101681.13;;;9.04;43.44
77159;BME280;66129;45.890;13.714;2023-02-28T08:29:27;101718.31;;;9.39;43.41
77159;BME280;66129;45.890;13.714;2023-02-28T08:31:54;101655.13;;;9.36;42.70
77159;BME280;66129;45.890;13.714;2023-02-28T08:34:20;101704.97;;;9.25;42.60
77159;BME280;66129;45.890;13.714;2023-02-28T08:36:45;101640.84;;;7.81;45.17
77159;BME280;66129;45.890;13.714;2023-02-28T08:39:12;101745.31;;;7.42;47.26
77159;BME280;66129;45.890;13.714;2023-02-28T08:41:38;101702.13;;;6.59;48.69
77159;BME280;66129;45.890;13.714;2023-02-28T08:44:04;101701.41;;;6.46;49.70
77159;BME280;66129;45.890;13.714;2023-02-28T08:46:30;101692.28;;;6.33;50.17
77159;BME280;66129;45.890;13.714;2023-02-28T08:48:56;101731.00;;;6.59;50.24
77159;BME280;66129;45.890;13.714;2023-02-28T08:51:25;101724.47;;;6.64;50.42
77159;BME280;66129;45.890;13.714;2023-02-28T08:53:57;101688.31;;;6.22;50.69
77159;BME280;66129;45.890;13.714;2023-02-28T08:56:23;101676.75;;;6.78;49.98
77159;BME280;66129;45.890;13.714;2023-02-28T08:58:50;101653.22;;;7.36;48.13
77159;BME280;66129;45.890;13.714;2023-02-28T09:01:20;101725.47;;;7.54;48.15
77159;BME280;66129;45.890;13.714;2023-02-28T09:03:48;101673.25;;;7.28;47.87
77159;BME280;66129;45.890;13.714;2023-02-28T09:06:16;101642.56;;;7.27;47.34
77159;BME280;66129;45.890;13.714;2023-02-28T09:08:42;101614.72;;;8.05;45.49
77159;BME280;66129;45.890;13.714;2023-02-28T09:11:09;101673.59;;;8.27;44.71
77159;BME280;66129;45.890;13.714;2023-02-28T09:13:41;101701.50;;;8.43;45.60
77159;BME280;66129;45.890;13.714;2023-02-28T09:16:09;101684.34;;;7.65;46.31
77159;BME280;66129;45.890;13.714;2023-02-28T09:18:36;101690.81;;;7.95;45.76
77159;BME280;66129;45.890;13.714;2023-02-28T09:21:08;101662.09;;;7.44;46.84
77159;BME280;66129;45.890;13.714;2023-02-28T09:23:43;101666.88;;;7.55;46.81
77159;BME280;66129;45.890;13.714;2023-02-28T09:26:35;101634.22;;;7.12;47.53
77159;BME280;66129;45.890;13.714;2023-02-28T09:29:00;101646.53;;;6.85;48.31
77159;BME280;66129;45.890;13.714;2023-02-28T09:31:29;101693.16;;;7.18;47.92
77159;BME280;66129;45.890;13.714;2023-02-28T09:33:56;101645.59;;;7.55;46.77
77159;BME280;66129;45.890;13.714;2023-02-28T09:36:29;101647.50;;;7.41;46.38
77159;BME280;66129;45.890;13.714;2023-02-28T09:39:01;101672.78;;;7.54;46.94
77159;BME280;66129;45.890;13.714;2023-02-28T09:41:36;101659.41;;;7.23;46.87
77159;BME280;66129;45.890;13.714;2023-02-28T09:46:50;101648.56;;;6.75;48.67
77159;BME280;66129;45.890;13.714;2023-02-28T09:49:28;101726.88;;;7.30;47.90
77159;BME280;66129;45.890;13.714;2023-02-28T09:52:02;101751.13;;;8.48;46.17
77159;BME280;66129;45.890;13.714;2023-02-28T09:54:32;101708.63;;;9.10;43.97
77159;BME280;66129;45.890;13.714;2023-02-28T10:05:55;101731.16;;;10.51;41.06
77159;BME280;66129;45.890;13.714;2023-02-28T10:08:41;101692.31;;;10.16;40.88
77159;BME280;66129;45.890;13.714;2023-02-28T10:11:14;101742.06;;;10.69;40.02
77159;BME280;66129;45.890;13.714;2023-02-28T10:20:12;101660.84;;;10.68;38.81
77159;BME280;66129;45.890;13.714;2023-02-28T10:23:05;101745.59;;;11.22;38.70
77159;BME280;66129;45.890;13.714;2023-02-28T10:25:36;101696.31;;;10.81;39.12
77159;BME280;66129;45.890;13.714;2023-02-28T10:30:37;101701.72;;;10.89;39.20
77159;BME280;66129;45.890;13.714;2023-02-28T10:33:08;101667.81;;;10.24;39.62
77159;BME280;66129;45.890;13.714;2023-02-28T10:35:43;101682.84;;;10.87;39.12
77159;BME280;66129;45.890;13.714;2023-02-28T10:38:35;101718.13;;;10.94;38.85
77159;BME280;66129;45.890;13.714;2023-02-28T10:43:37;101662.41;;;10.65;38.87
77159;BME280;66129;45.890;13.714;2023-02-28T10:48:45;101700.38;;;10.51;39.63
77159;BME280;66129;45.890;13.714;2023-02-28T10:51:21;101651.31;;;10.66;39.19
77159;BME280;66129;45.890;13.714;2023-02-28T10:53:49;101677.06;;;10.44;39.60
77159;BME280;66129;45.890;13.714;2023-02-28T10:56:23;101731.34;;;11.05;38.91
77159;BME280;66129;45.890;13.714;2023-02-28T10:59:24;101718.13;;;11.20;38.83
77159;BME280;66129;45.890;13.714;2023-02-28T11:01:52;101656.34;;;10.88;38.87
77159;BME280;66129;45.890;13.714;2023-02-28T11:06:58;101719.91;;;10.96;39.00
77159;BME280;66129;45.890;13.714;2023-02-28T11:11:55;101676.50;;;11.02;38.72
77159;BME280;66129;45.890;13.714;2023-02-28T11:14:23;101716.06;;;11.35;38.53
77159;BME280;66129;45.890;13.714;2023-02-28T11:16:51;101654.97;;;10.97;38.50
77159;BME280;66129;45.890;13.714;2023-02-28T11:19:22;101683.81;;;11.16;38.46
77159;BME280;66129;45.890;13.714;2023-02-28T11:21:58;101669.41;;;10.95;38.63
77159;BME280;66129;45.890;13.714;2023-02-28T11:24:29;101678.44;;;10.84;39.02
77159;BME280;66129;45.890;13.714;2023-02-28T11:26:56;101617.66;;;10.30;39.25
77159;BME280;66129;45.890;13.714;2023-02-28T11:29:28;101696.03;;;10.99;39.38
77159;BME280;66129;45.890;13.714;2023-02-28T11:32:12;101669.28;;;10.91;38.85
77159;BME280;66129;45.890;13.714;2023-02-28T11:34:41;101675.28;;;10.91;38.88
77159;BME280;66129;45.890;13.714;2023-02-28T11:37:13;101644.84;;;10.75;39.02
77159;BME280;66129;45.890;13.714;2023-02-28T11:39:40;101587.00;;;10.33;39.34
77159;BME280;66129;45.890;13.714;2023-02-28T11:48:12;101582.34;;;10.47;39.32
77159;BME280;66129;45.890;13.714;2023-02-28T11:56:14;101658.28;;;10.95;39.84
77159;BME280;66129;45.890;13.714;2023-02-28T12:07:16;101653.91;;;10.91;39.49
77159;BME280;66129;45.890;13.714;2023-02-28T12:09:56;101659.88;;;10.91;39.26
77159;BME280;66129;45.890;13.714;2023-02-28T12:12:58;101554.31;;;10.26;39.36
77159;BME280;66129;45.890;13.714;2023-02-28T12:26:40;101608.59;;;10.91;38.92
77159;BME280;66129;45.890;13.714;2023-02-28T12:29:19;101614.38;;;10.59;39.51
77159;BME280;66129;45.890;13.714;2023-02-28T12:32:17;101620.56;;;10.66;39.48
77159;BME280;66129;45.890;13.714;2023-02-28T12:35:10;101621.25;;;10.60;39.20
77159;BME280;66129;45.890;13.714;2023-02-28T12:37:41;101607.94;;;10.45;39.56
77159;BME280;66129;45.890;13.714;2023-02-28T12:40:19;101583.44;;;9.58;40.79
77159;BME280;66129;45.890;13.714;2023-02-28T12:42:52;101617.41;;;10.23;40.63
77159;BME280;66129;45.890;13.714;2023-02-28T12:45:25;101560.44;;;9.83;40.06
77159;BME280;66129;45.890;13.714;2023-02-28T12:47:57;101561.81;;;9.97;40.14
77159;BME280;66129;45.890;13.714;2023-02-28T12:50:26;101535.63;;;9.81;39.79
77159;BME280;66129;45.890;13.714;2023-02-28T12:53:01;101587.72;;;10.04;40.25
77159;BME280;66129;45.890;13.714;2023-02-28T13:00:46;101525.22;;;9.76;39.81
77159;BME280;66129;45.890;13.714;2023-02-28T13:03:36;101586.06;;;9.83;41.00
77159;BME280;66129;45.890;13.714;2023-02-28T13:09:24;101580.91;;;9.82;40.52
77159;BME280;66129;45.890;13.714;2023-02-28T13:11:45;101600.13;;;9.71;41.49
77159;BME280;66129;45.890;13.714;2023-02-28T13:19:58;101538.78;;;9.27;42.08
77159;BME280;66129;45.890;13.714;2023-02-28T13:22:46;101582.19;;;9.25;41.85
77159;BME280;66129;45.890;13.714;2023-02-28T13:28:01;101582.63;;;8.51;43.17
77159;BME280;66129;45.890;13.714;2023-02-28T13:36:22;101478.38;;;7.81;43.95
77159;BME280;66129;45.890;13.714;2023-02-28T13:38:53;101556.63;;;8.39;44.08
77159;BME280;66129;45.890;13.714;2023-02-28T13:44:22;101571.34;;;8.26;44.41
77159;BME280;66129;45.890;13.714;2023-02-28T14:03:05;101564.22;;;7.61;45.58
77159;BME280;66129;45.890;13.714;2023-02-28T14:05:34;101541.84;;;7.36;45.91
77159;BME280;66129;45.890;13.714;2023-02-28T14:08:06;101471.47;;;7.02;45.78
77159;BME280;66129;45.890;13.714;2023-02-28T14:15:46;101446.66;;;6.79;46.63
77159;BME280;66129;45.890;13.714;2023-02-28T14:18:35;101559.97;;;7.04;46.72
77159;BME280;66129;45.890;13.714;2023-02-28T14:21:21;101575.03;;;7.00;47.42
77159;BME280;66129;45.890;13.714;2023-02-28T14:37:33;101508.06;;;6.85;48.49
77159;BME280;66129;45.890;13.714;2023-02-28T14:40:02;101535.88;;;6.80;49.23
77159;BME280;66129;45.890;13.714;2023-02-28T14:42:31;101541.84;;;6.81;49.68
77159;BME280;66129;45.890;13.714;2023-02-28T14:44:57;101542.47;;;6.58;49.67
77159;BME280;66129;45.890;13.714;2023-02-28T14:47:30;101492.97;;;6.36;49.95
77159;BME280;66129;45.890;13.714;2023-02-28T14:49:58;101456.59;;;6.03;50.05
77159;BME280;66129;45.890;13.714;2023-02-28T14:52:28;101498.56;;;6.11;50.35
77159;BME280;66129;45.890;13.714;2023-02-28T14:55:09;101482.47;;;5.95;50.60
77159;BME280;66129;45.890;13.714;2023-02-28T14:57:53;101522.06;;;6.23;50.32
77159;BME280;66129;45.890;13.714;2023-02-28T15:00:47;101428.13;;;5.77;50.68
77159;BME280;66129;45.890;13.714;2023-02-28T15:03:36;101543.97;;;6.37;50.50
77159;BME280;66129;45.890;13.714;2023-02-28T15:06:22;101423.53;;;5.70;50.42
77159;BME280;66129;45.890;13.714;2023-02-28T15:09:16;101482.31;;;5.92;50.58
77159;BME280;66129;45.890;13.714;2023-02-28T15:11:57;101469.75;;;5.95;50.92
77159;BME280;66129;45.890;13.714;2023-02-28T15:14:25;101496.06;;;5.95;50.62
77159;BME280;66129;45.890;13.714;2023-02-28T15:17:16;101497.56;;;5.92;51.14
77159;BME280;66129;45.890;13.714;2023-02-28T15:19:58;101532.06;;;6.03;51.02
77159;BME280;66129;45.890;13.714;2023-02-28T15:22:37;101406.72;;;5.23;51.20
77159;BME280;66129;45.890;13.714;2023-02-28T15:25:05;101527.88;;;5.87;51.11
77159;BME280;66129;45.890;13.714;2023-02-28T15:27:48;101406.66;;;5.21;51.03
77159;BME280;66129;45.890;13.714;2023-02-28T15:30:31;101487.22;;;5.55;51.24
77159;BME280;66129;45.890;13.714;2023-02-28T15:35:38;101470.84;;;5.50;51.34
77159;BME280;66129;45.890;13.714;2023-02-28T15:38:27;101442.38;;;5.24;51.23
77159;BME280;66129;45.890;13.714;2023-02-28T15:40:59;101468.94;;;5.46;51.54
77159;BME280;66129;45.890;13.714;2023-02-28T15:43:37;101550.13;;;5.75;51.06
77159;BME280;66129;45.890;13.714;2023-02-28T15:46:05;101442.59;;;5.13;51.33
77159;BME280;66129;45.890;13.714;2023-02-28T15:48:36;101533.94;;;5.57;51.91
77159;BME280;66129;45.890;13.714;2023-02-28T15:51:12;101540.28;;;5.49;52.59
77159;BME280;66129;45.890;13.714;2023-02-28T15:53:50;101479.63;;;5.24;52.45
77159;BME280;66129;45.890;13.714;2023-02-28T15:59:00;101405.22;;;4.78;52.39